Saskatoon Rcs, Nunavut

8:11 AM CST on December 06, 2016 (GMT -0600)
Pacific Heights | | Change Station

Elev 1647 ft 52.13 °N, 106.75 °W | Updated 1 minute ago

Scattered Clouds
Scattered Clouds
-1.4 °F
Feels Like -12 °F
N
5.0
Wind Variable Wind from NW
Gusts 12.0 mph

Today
High -- | Low -- °F
--% Chance of Precip.
Yesterday
High -- | Low -- °F
Precip. -- in
Pressure 30.29 in
Visibility 15.0 miles
Clouds Scattered Clouds 6000 ft
Windchill -12 °F
Dew Point -6 °F
Humidity 79%
Rainfall 0.00 in
Snow Depth Not available.
9:00 AM 4:55 PM
Waxing Crescent, 42% visible
METAR CYXE 061400Z 31013KT 15SM SCT060 M19/M22 A3014 RMK SC3 SLP257
Pressure 30.29 in
Visibility 15.0 miles
Clouds Scattered Clouds 6000 ft
Windchill -12 °F
Dew Point -6 °F
Humidity 79%
Rainfall 0.00 in
Snow Depth Not available.
9:00 AM 4:55 PM
Waxing Crescent, 42% visible
METAR CYXE 061400Z 31013KT 15SM SCT060 M19/M22 A3014 RMK SC3 SLP257

10-Day Weather Forecast

Almanac

Astronomy

Dec. 06, 2016 Rise Set
Actual Time
Civil Twilight
Nautical Twilight
Astronomical Twilight
Moon
Length of Visible Light
Length of Day
Tomorrow will be .
, % of the Moon is Illuminated

Today's Extremes

Country Highs Country Lows

Community

WunderPhotos

Upload Photos

1,955,949 photos uploaded!

WunderBlog® & News

Nearby

Air Quality

  Air Quality AQ Index Pollutant
Not available.

Snow Depth

Station Depth Elevation

Earthquake Activity

City Distance Mag. Time & Date
Minimum magnitude displayed is 2.5.

Coastal Water Temperatures

Place Temperature

Stations

Nearby Weather Stations

Station Location Temp. Windchill Dew Point Humidity Wind Precip. Elev Updated Type
                   

Watches & Warnings

There are currently no watches in effect.